sensor_id;sensor_type;location;lat;lon;timestamp;P1;durP1;ratioP1;P2;durP2;ratioP2
4517;SDS011;2271;49.464;11.070;2022-11-20T00:00:52;17.50;;;10.73;;
4517;SDS011;2271;49.464;11.070;2022-11-20T00:03:18;17.70;;;10.70;;
4517;SDS011;2271;49.464;11.070;2022-11-20T00:05:44;19.40;;;11.90;;
4517;SDS011;2271;49.464;11.070;2022-11-20T00:08:10;20.07;;;11.63;;
4517;SDS011;2271;49.464;11.070;2022-11-20T00:10:36;19.47;;;10.57;;
4517;SDS011;2271;49.464;11.070;2022-11-20T00:13:02;21.33;;;11.60;;
4517;SDS011;2271;49.464;11.070;2022-11-20T00:15:28;18.67;;;11.20;;
4517;SDS011;2271;49.464;11.070;2022-11-20T00:17:54;18.40;;;11.07;;
4517;SDS011;2271;49.464;11.070;2022-11-20T00:20:20;18.47;;;11.50;;
4517;SDS011;2271;49.464;11.070;2022-11-20T00:22:45;21.10;;;11.03;;
4517;SDS011;2271;49.464;11.070;2022-11-20T00:25:12;17.40;;;10.87;;
4517;SDS011;2271;49.464;11.070;2022-11-20T00:27:37;17.77;;;10.93;;
4517;SDS011;2271;49.464;11.070;2022-11-20T00:30:04;18.93;;;12.40;;
4517;SDS011;2271;49.464;11.070;2022-11-20T00:32:31;17.67;;;10.97;;
4517;SDS011;2271;49.464;11.070;2022-11-20T00:34:57;18.03;;;11.17;;
4517;SDS011;2271;49.464;11.070;2022-11-20T00:37:22;17.57;;;11.17;;
4517;SDS011;2271;49.464;11.070;2022-11-20T00:39:48;18.97;;;11.80;;
4517;SDS011;2271;49.464;11.070;2022-11-20T00:42:14;20.20;;;11.73;;
4517;SDS011;2271;49.464;11.070;2022-11-20T00:44:39;19.90;;;12.33;;
4517;SDS011;2271;49.464;11.070;2022-11-20T00:47:05;18.20;;;10.90;;
4517;SDS011;2271;49.464;11.070;2022-11-20T00:49:30;17.67;;;11.40;;
4517;SDS011;2271;49.464;11.070;2022-11-20T00:51:56;18.17;;;12.43;;
4517;SDS011;2271;49.464;11.070;2022-11-20T00:54:22;19.90;;;11.73;;
4517;SDS011;2271;49.464;11.070;2022-11-20T00:56:47;20.03;;;11.33;;
4517;SDS011;2271;49.464;11.070;2022-11-20T00:59:13;21.10;;;11.77;;
4517;SDS011;2271;49.464;11.070;2022-11-20T01:01:38;21.03;;;11.33;;
4517;SDS011;2271;49.464;11.070;2022-11-20T01:04:04;19.80;;;11.30;;
4517;SDS011;2271;49.464;11.070;2022-11-20T01:06:31;19.13;;;11.50;;
4517;SDS011;2271;49.464;11.070;2022-11-20T01:09:06;18.43;;;11.20;;
4517;SDS011;2271;49.464;11.070;2022-11-20T01:11:34;19.63;;;11.47;;
4517;SDS011;2271;49.464;11.070;2022-11-20T01:14:02;17.70;;;11.17;;
4517;SDS011;2271;49.464;11.070;2022-11-20T01:16:30;19.10;;;11.60;;
4517;SDS011;2271;49.464;11.070;2022-11-20T01:18:59;19.00;;;11.67;;
4517;SDS011;2271;49.464;11.070;2022-11-20T01:21:27;20.77;;;11.67;;
4517;SDS011;2271;49.464;11.070;2022-11-20T01:23:54;19.07;;;11.50;;
4517;SDS011;2271;49.464;11.070;2022-11-20T01:26:21;20.33;;;12.20;;
4517;SDS011;2271;49.464;11.070;2022-11-20T01:28:49;18.47;;;11.73;;
4517;SDS011;2271;49.464;11.070;2022-11-20T01:31:20;22.50;;;11.90;;
4517;SDS011;2271;49.464;11.070;2022-11-20T01:33:47;21.47;;;13.13;;
4517;SDS011;2271;49.464;11.070;2022-11-20T01:36:14;21.70;;;12.37;;
4517;SDS011;2271;49.464;11.070;2022-11-20T01:38:40;22.27;;;13.00;;
4517;SDS011;2271;49.464;11.070;2022-11-20T01:41:07;23.63;;;11.70;;
4517;SDS011;2271;49.464;11.070;2022-11-20T01:43:33;19.03;;;11.87;;
4517;SDS011;2271;49.464;11.070;2022-11-20T01:48:32;23.53;;;13.27;;
4517;SDS011;2271;49.464;11.070;2022-11-20T01:51:05;23.03;;;13.13;;
4517;SDS011;2271;49.464;11.070;2022-11-20T01:53:37;18.93;;;11.47;;
4517;SDS011;2271;49.464;11.070;2022-11-20T01:56:04;22.27;;;13.10;;
4517;SDS011;2271;49.464;11.070;2022-11-20T01:58:33;21.47;;;12.73;;
4517;SDS011;2271;49.464;11.070;2022-11-20T02:01:03;20.47;;;12.77;;
4517;SDS011;2271;49.464;11.070;2022-11-20T02:03:29;23.57;;;13.93;;
4517;SDS011;2271;49.464;11.070;2022-11-20T02:08:29;18.27;;;11.80;;
4517;SDS011;2271;49.464;11.070;2022-11-20T02:10:55;19.00;;;12.17;;
4517;SDS011;2271;49.464;11.070;2022-11-20T02:13:21;22.67;;;12.37;;
4517;SDS011;2271;49.464;11.070;2022-11-20T02:16:07;22.13;;;12.87;;
4517;SDS011;2271;49.464;11.070;2022-11-20T02:18:54;28.27;;;13.97;;
4517;SDS011;2271;49.464;11.070;2022-11-20T02:29:10;23.33;;;11.73;;
4517;SDS011;2271;49.464;11.070;2022-11-20T02:31:37;25.93;;;14.00;;
4517;SDS011;2271;49.464;11.070;2022-11-20T02:34:05;22.87;;;13.83;;
4517;SDS011;2271;49.464;11.070;2022-11-20T02:36:30;20.10;;;11.73;;
4517;SDS011;2271;49.464;11.070;2022-11-20T02:38:57;25.70;;;14.07;;
4517;SDS011;2271;49.464;11.070;2022-11-20T02:41:30;21.20;;;12.03;;
4517;SDS011;2271;49.464;11.070;2022-11-20T02:44:00;24.27;;;12.67;;
4517;SDS011;2271;49.464;11.070;2022-11-20T02:46:25;22.27;;;13.13;;
4517;SDS011;2271;49.464;11.070;2022-11-20T02:48:51;21.73;;;12.70;;
4517;SDS011;2271;49.464;11.070;2022-11-20T02:51:17;24.03;;;13.30;;
4517;SDS011;2271;49.464;11.070;2022-11-20T02:53:42;22.37;;;13.03;;
4517;SDS011;2271;49.464;11.070;2022-11-20T02:56:08;21.17;;;11.93;;
4517;SDS011;2271;49.464;11.070;2022-11-20T02:58:33;23.57;;;12.93;;
4517;SDS011;2271;49.464;11.070;2022-11-20T03:00:59;24.83;;;13.30;;
4517;SDS011;2271;49.464;11.070;2022-11-20T03:03:25;22.27;;;12.77;;
4517;SDS011;2271;49.464;11.070;2022-11-20T03:05:50;24.20;;;13.87;;
4517;SDS011;2271;49.464;11.070;2022-11-20T03:08:16;21.93;;;12.27;;
4517;SDS011;2271;49.464;11.070;2022-11-20T03:10:41;21.97;;;12.80;;
4517;SDS011;2271;49.464;11.070;2022-11-20T03:13:07;21.10;;;13.03;;
4517;SDS011;2271;49.464;11.070;2022-11-20T03:15:33;23.50;;;12.60;;
4517;SDS011;2271;49.464;11.070;2022-11-20T03:18:00;21.53;;;12.70;;
4517;SDS011;2271;49.464;11.070;2022-11-20T03:20:26;24.33;;;14.33;;
4517;SDS011;2271;49.464;11.070;2022-11-20T03:22:53;18.30;;;11.23;;
4517;SDS011;2271;49.464;11.070;2022-11-20T03:25:19;21.97;;;12.63;;
4517;SDS011;2271;49.464;11.070;2022-11-20T03:27:44;19.50;;;12.73;;
4517;SDS011;2271;49.464;11.070;2022-11-20T03:30:10;22.27;;;13.37;;
4517;SDS011;2271;49.464;11.070;2022-11-20T03:32:36;24.03;;;13.27;;
4517;SDS011;2271;49.464;11.070;2022-11-20T03:35:01;19.67;;;12.70;;
4517;SDS011;2271;49.464;11.070;2022-11-20T03:37:27;24.30;;;13.83;;
4517;SDS011;2271;49.464;11.070;2022-11-20T03:39:53;20.97;;;12.33;;
4517;SDS011;2271;49.464;11.070;2022-11-20T03:42:18;23.87;;;13.20;;
4517;SDS011;2271;49.464;11.070;2022-11-20T03:45:03;23.17;;;12.27;;
4517;SDS011;2271;49.464;11.070;2022-11-20T03:47:29;19.50;;;11.73;;
4517;SDS011;2271;49.464;11.070;2022-11-20T03:49:54;23.33;;;12.20;;
4517;SDS011;2271;49.464;11.070;2022-11-20T03:52:20;18.43;;;11.73;;
4517;SDS011;2271;49.464;11.070;2022-11-20T03:54:45;18.47;;;11.40;;
4517;SDS011;2271;49.464;11.070;2022-11-20T03:57:11;22.20;;;12.33;;
4517;SDS011;2271;49.464;11.070;2022-11-20T03:59:37;21.40;;;11.93;;
4517;SDS011;2271;49.464;11.070;2022-11-20T04:02:02;19.67;;;12.73;;
4517;SDS011;2271;49.464;11.070;2022-11-20T04:04:28;21.33;;;11.70;;
4517;SDS011;2271;49.464;11.070;2022-11-20T04:06:53;21.37;;;12.40;;
4517;SDS011;2271;49.464;11.070;2022-11-20T04:09:19;22.17;;;12.20;;
4517;SDS011;2271;49.464;11.070;2022-11-20T04:11:44;18.20;;;11.50;;
4517;SDS011;2271;49.464;11.070;2022-11-20T04:14:13;19.17;;;12.97;;
4517;SDS011;2271;49.464;11.070;2022-11-20T04:16:40;20.60;;;11.40;;
4517;SDS011;2271;49.464;11.070;2022-11-20T04:19:09;20.13;;;12.43;;
4517;SDS011;2271;49.464;11.070;2022-11-20T04:21:36;19.27;;;11.67;;
4517;SDS011;2271;49.464;11.070;2022-11-20T04:24:02;20.47;;;11.63;;
4517;SDS011;2271;49.464;11.070;2022-11-20T04:26:29;18.97;;;11.53;;
4517;SDS011;2271;49.464;11.070;2022-11-20T04:28:55;19.10;;;10.90;;
4517;SDS011;2271;49.464;11.070;2022-11-20T04:31:23;20.13;;;11.30;;
4517;SDS011;2271;49.464;11.070;2022-11-20T04:33:51;15.23;;;9.50;;
4517;SDS011;2271;49.464;11.070;2022-11-20T04:36:21;19.00;;;11.50;;
4517;SDS011;2271;49.464;11.070;2022-11-20T04:38:55;19.47;;;10.80;;
4517;SDS011;2271;49.464;11.070;2022-11-20T04:41:24;17.43;;;10.50;;
4517;SDS011;2271;49.464;11.070;2022-11-20T04:43:52;19.07;;;10.77;;
4517;SDS011;2271;49.464;11.070;2022-11-20T04:46:24;21.00;;;11.90;;
4517;SDS011;2271;49.464;11.070;2022-11-20T04:48:51;18.73;;;10.83;;
4517;SDS011;2271;49.464;11.070;2022-11-20T04:51:16;18.67;;;10.13;;
4517;SDS011;2271;49.464;11.070;2022-11-20T04:53:42;17.37;;;9.87;;
4517;SDS011;2271;49.464;11.070;2022-11-20T04:56:08;16.73;;;9.77;;
4517;SDS011;2271;49.464;11.070;2022-11-20T04:58:36;16.87;;;10.07;;
4517;SDS011;2271;49.464;11.070;2022-11-20T05:01:05;19.33;;;10.50;;
4517;SDS011;2271;49.464;11.070;2022-11-20T05:03:36;18.10;;;10.23;;
4517;SDS011;2271;49.464;11.070;2022-11-20T05:06:02;19.50;;;10.83;;
4517;SDS011;2271;49.464;11.070;2022-11-20T05:08:28;17.10;;;10.70;;
4517;SDS011;2271;49.464;11.070;2022-11-20T05:10:59;20.20;;;10.47;;
4517;SDS011;2271;49.464;11.070;2022-11-20T05:13:28;18.33;;;10.20;;
4517;SDS011;2271;49.464;11.070;2022-11-20T05:15:54;19.40;;;10.17;;
4517;SDS011;2271;49.464;11.070;2022-11-20T05:18:20;19.67;;;11.10;;
4517;SDS011;2271;49.464;11.070;2022-11-20T05:20:45;17.23;;;10.23;;
4517;SDS011;2271;49.464;11.070;2022-11-20T05:23:11;16.60;;;10.03;;
4517;SDS011;2271;49.464;11.070;2022-11-20T05:25:36;17.43;;;9.77;;
4517;SDS011;2271;49.464;11.070;2022-11-20T05:28:02;16.13;;;9.30;;
4517;SDS011;2271;49.464;11.070;2022-11-20T05:30:28;17.10;;;10.10;;
4517;SDS011;2271;49.464;11.070;2022-11-20T05:32:53;18.77;;;11.40;;
4517;SDS011;2271;49.464;11.070;2022-11-20T05:35:19;15.63;;;9.90;;
4517;SDS011;2271;49.464;11.070;2022-11-20T05:37:45;16.53;;;9.97;;
4517;SDS011;2271;49.464;11.070;2022-11-20T05:40:11;16.60;;;10.13;;
4517;SDS011;2271;49.464;11.070;2022-11-20T05:42:37;18.50;;;10.87;;
4517;SDS011;2271;49.464;11.070;2022-11-20T05:45:03;14.17;;;9.10;;
4517;SDS011;2271;49.464;11.070;2022-11-20T05:47:33;20.00;;;10.63;;
4517;SDS011;2271;49.464;11.070;2022-11-20T05:49:59;16.30;;;9.63;;
4517;SDS011;2271;49.464;11.070;2022-11-20T05:52:28;16.37;;;10.00;;
4517;SDS011;2271;49.464;11.070;2022-11-20T05:54:54;14.23;;;9.23;;
4517;SDS011;2271;49.464;11.070;2022-11-20T05:57:19;17.20;;;10.10;;
4517;SDS011;2271;49.464;11.070;2022-11-20T05:59:45;18.17;;;9.93;;
4517;SDS011;2271;49.464;11.070;2022-11-20T06:02:11;16.27;;;10.93;;
4517;SDS011;2271;49.464;11.070;2022-11-20T06:04:36;18.53;;;11.17;;
4517;SDS011;2271;49.464;11.070;2022-11-20T06:07:02;15.83;;;9.27;;
4517;SDS011;2271;49.464;11.070;2022-11-20T06:09:29;17.20;;;9.57;;
4517;SDS011;2271;49.464;11.070;2022-11-20T06:11:54;15.73;;;9.23;;
4517;SDS011;2271;49.464;11.070;2022-11-20T06:14:20;13.90;;;8.43;;
4517;SDS011;2271;49.464;11.070;2022-11-20T06:16:45;12.80;;;8.00;;
4517;SDS011;2271;49.464;11.070;2022-11-20T06:19:11;16.97;;;9.70;;
4517;SDS011;2271;49.464;11.070;2022-11-20T06:21:37;13.83;;;8.83;;
4517;SDS011;2271;49.464;11.070;2022-11-20T06:24:02;13.47;;;8.17;;
4517;SDS011;2271;49.464;11.070;2022-11-20T06:26:28;13.77;;;8.83;;
4517;SDS011;2271;49.464;11.070;2022-11-20T06:28:55;14.93;;;9.60;;
4517;SDS011;2271;49.464;11.070;2022-11-20T06:31:22;14.73;;;8.63;;
4517;SDS011;2271;49.464;11.070;2022-11-20T06:33:48;13.53;;;8.57;;
4517;SDS011;2271;49.464;11.070;2022-11-20T06:36:15;17.23;;;10.20;;
4517;SDS011;2271;49.464;11.070;2022-11-20T06:38:42;17.13;;;10.37;;
4517;SDS011;2271;49.464;11.070;2022-11-20T06:41:13;13.47;;;9.03;;
4517;SDS011;2271;49.464;11.070;2022-11-20T06:43:40;14.40;;;9.50;;
4517;SDS011;2271;49.464;11.070;2022-11-20T06:46:06;16.90;;;9.60;;
4517;SDS011;2271;49.464;11.070;2022-11-20T06:48:32;15.47;;;8.80;;
4517;SDS011;2271;49.464;11.070;2022-11-20T06:50:58;14.37;;;9.07;;
4517;SDS011;2271;49.464;11.070;2022-11-20T06:53:23;15.60;;;8.57;;
4517;SDS011;2271;49.464;11.070;2022-11-20T06:55:49;17.30;;;9.77;;
4517;SDS011;2271;49.464;11.070;2022-11-20T06:58:16;14.13;;;9.33;;
4517;SDS011;2271;49.464;11.070;2022-11-20T07:00:42;16.47;;;8.93;;
4517;SDS011;2271;49.464;11.070;2022-11-20T07:03:08;17.53;;;9.43;;
4517;SDS011;2271;49.464;11.070;2022-11-20T07:05:35;16.03;;;8.27;;
4517;SDS011;2271;49.464;11.070;2022-11-20T07:08:02;16.33;;;10.17;;
4517;SDS011;2271;49.464;11.070;2022-11-20T07:10:28;15.20;;;8.93;;
4517;SDS011;2271;49.464;11.070;2022-11-20T07:12:54;13.40;;;8.40;;
4517;SDS011;2271;49.464;11.070;2022-11-20T07:15:21;14.83;;;9.17;;
4517;SDS011;2271;49.464;11.070;2022-11-20T07:17:48;10.97;;;6.20;;
4517;SDS011;2271;49.464;11.070;2022-11-20T07:20:14;13.70;;;8.37;;
4517;SDS011;2271;49.464;11.070;2022-11-20T07:22:40;18.07;;;10.00;;
4517;SDS011;2271;49.464;11.070;2022-11-20T07:25:07;16.20;;;10.40;;
4517;SDS011;2271;49.464;11.070;2022-11-20T07:27:34;16.87;;;10.00;;
4517;SDS011;2271;49.464;11.070;2022-11-20T07:30:00;12.43;;;8.33;;
4517;SDS011;2271;49.464;11.070;2022-11-20T07:32:26;13.93;;;8.67;;
4517;SDS011;2271;49.464;11.070;2022-11-20T07:34:52;11.87;;;7.73;;
4517;SDS011;2271;49.464;11.070;2022-11-20T07:37:18;12.50;;;8.23;;
4517;SDS011;2271;49.464;11.070;2022-11-20T07:39:43;13.53;;;9.13;;
4517;SDS011;2271;49.464;11.070;2022-11-20T07:42:09;12.77;;;8.27;;
4517;SDS011;2271;49.464;11.070;2022-11-20T07:44:37;12.40;;;7.63;;
4517;SDS011;2271;49.464;11.070;2022-11-20T07:47:02;16.47;;;8.57;;
4517;SDS011;2271;49.464;11.070;2022-11-20T07:49:28;17.33;;;8.80;;
4517;SDS011;2271;49.464;11.070;2022-11-20T07:51:54;14.73;;;8.37;;
4517;SDS011;2271;49.464;11.070;2022-11-20T07:54:20;15.23;;;9.70;;
4517;SDS011;2271;49.464;11.070;2022-11-20T07:56:48;15.70;;;8.40;;
4517;SDS011;2271;49.464;11.070;2022-11-20T07:59:14;16.50;;;8.83;;
4517;SDS011;2271;49.464;11.070;2022-11-20T08:01:41;13.17;;;8.67;;
4517;SDS011;2271;49.464;11.070;2022-11-20T08:04:07;15.43;;;8.13;;
4517;SDS011;2271;49.464;11.070;2022-11-20T08:06:34;15.47;;;9.73;;
4517;SDS011;2271;49.464;11.070;2022-11-20T08:09:00;15.03;;;9.47;;
4517;SDS011;2271;49.464;11.070;2022-11-20T08:11:26;14.13;;;8.57;;
4517;SDS011;2271;49.464;11.070;2022-11-20T08:14:10;14.20;;;8.57;;
4517;SDS011;2271;49.464;11.070;2022-11-20T08:16:39;17.00;;;9.77;;
4517;SDS011;2271;49.464;11.070;2022-11-20T08:19:10;14.90;;;9.57;;
4517;SDS011;2271;49.464;11.070;2022-11-20T08:21:37;17.03;;;9.47;;
4517;SDS011;2271;49.464;11.070;2022-11-20T08:24:03;15.43;;;9.77;;
4517;SDS011;2271;49.464;11.070;2022-11-20T08:26:29;15.03;;;8.87;;
4517;SDS011;2271;49.464;11.070;2022-11-20T08:28:55;13.80;;;8.67;;
4517;SDS011;2271;49.464;11.070;2022-11-20T08:31:22;12.80;;;8.03;;
4517;SDS011;2271;49.464;11.070;2022-11-20T08:33:49;20.57;;;8.50;;
4517;SDS011;2271;49.464;11.070;2022-11-20T08:36:15;13.30;;;8.37;;
4517;SDS011;2271;49.464;11.070;2022-11-20T08:38:41;15.83;;;9.27;;
4517;SDS011;2271;49.464;11.070;2022-11-20T08:41:07;15.43;;;9.37;;
4517;SDS011;2271;49.464;11.070;2022-11-20T08:43:52;14.77;;;9.23;;
4517;SDS011;2271;49.464;11.070;2022-11-20T08:46:22;15.10;;;8.57;;
4517;SDS011;2271;49.464;11.070;2022-11-20T08:48:52;12.67;;;8.53;;
4517;SDS011;2271;49.464;11.070;2022-11-20T08:51:18;14.83;;;9.33;;
4517;SDS011;2271;49.464;11.070;2022-11-20T08:53:45;19.07;;;9.63;;
4517;SDS011;2271;49.464;11.070;2022-11-20T08:56:12;17.37;;;9.53;;
4517;SDS011;2271;49.464;11.070;2022-11-20T08:58:41;13.80;;;8.87;;
4517;SDS011;2271;49.464;11.070;2022-11-20T09:01:07;15.37;;;9.90;;
4517;SDS011;2271;49.464;11.070;2022-11-20T09:03:32;12.40;;;8.87;;
4517;SDS011;2271;49.464;11.070;2022-11-20T09:05:59;17.50;;;9.70;;
4517;SDS011;2271;49.464;11.070;2022-11-20T09:08:26;13.23;;;8.07;;
4517;SDS011;2271;49.464;11.070;2022-11-20T09:10:53;14.27;;;8.23;;
4517;SDS011;2271;49.464;11.070;2022-11-20T09:13:20;14.67;;;8.57;;
4517;SDS011;2271;49.464;11.070;2022-11-20T09:15:46;15.50;;;8.80;;
4517;SDS011;2271;49.464;11.070;2022-11-20T09:18:17;12.07;;;8.20;;
4517;SDS011;2271;49.464;11.070;2022-11-20T09:20:43;15.17;;;8.43;;
4517;SDS011;2271;49.464;11.070;2022-11-20T09:23:09;15.70;;;8.97;;
4517;SDS011;2271;49.464;11.070;2022-11-20T09:25:34;13.43;;;8.93;;
4517;SDS011;2271;49.464;11.070;2022-11-20T09:28:00;14.00;;;8.40;;
4517;SDS011;2271;49.464;11.070;2022-11-20T09:30:26;11.50;;;8.13;;
4517;SDS011;2271;49.464;11.070;2022-11-20T09:32:52;13.07;;;8.57;;
4517;SDS011;2271;49.464;11.070;2022-11-20T09:35:18;14.50;;;9.37;;
4517;SDS011;2271;49.464;11.070;2022-11-20T09:37:44;12.33;;;7.37;;
4517;SDS011;2271;49.464;11.070;2022-11-20T09:42:50;14.20;;;8.40;;
4517;SDS011;2271;49.464;11.070;2022-11-20T09:45:22;15.07;;;8.33;;
4517;SDS011;2271;49.464;11.070;2022-11-20T09:56:16;15.43;;;8.93;;
4517;SDS011;2271;49.464;11.070;2022-11-20T09:58:50;15.50;;;8.50;;
4517;SDS011;2271;49.464;11.070;2022-11-20T10:01:20;15.27;;;8.50;;
4517;SDS011;2271;49.464;11.070;2022-11-20T10:06:17;14.20;;;8.63;;
4517;SDS011;2271;49.464;11.070;2022-11-20T10:09:06;17.40;;;9.67;;
4517;SDS011;2271;49.464;11.070;2022-11-20T10:11:56;14.77;;;9.33;;
4517;SDS011;2271;49.464;11.070;2022-11-20T10:17:58;13.00;;;9.50;;
4517;SDS011;2271;49.464;11.070;2022-11-20T10:23:29;13.87;;;9.27;;
4517;SDS011;2271;49.464;11.070;2022-11-20T10:28:37;20.90;;;11.80;;
4517;SDS011;2271;49.464;11.070;2022-11-20T10:31:36;14.87;;;9.63;;
4517;SDS011;2271;49.464;11.070;2022-11-20T10:37:18;14.23;;;7.60;;
4517;SDS011;2271;49.464;11.070;2022-11-20T10:39:55;12.30;;;7.73;;
4517;SDS011;2271;49.464;11.070;2022-11-20T10:42:43;14.93;;;8.43;;
4517;SDS011;2271;49.464;11.070;2022-11-20T10:47:52;16.10;;;11.03;;
4517;SDS011;2271;49.464;11.070;2022-11-20T10:50:21;18.83;;;11.33;;
4517;SDS011;2271;49.464;11.070;2022-11-20T10:55:28;17.50;;;11.00;;
4517;SDS011;2271;49.464;11.070;2022-11-20T11:00:43;18.87;;;10.83;;
4517;SDS011;2271;49.464;11.070;2022-11-20T11:03:22;16.87;;;11.23;;
4517;SDS011;2271;49.464;11.070;2022-11-20T11:08:37;16.43;;;11.17;;
4517;SDS011;2271;49.464;11.070;2022-11-20T11:13:32;16.83;;;10.33;;
4517;SDS011;2271;49.464;11.070;2022-11-20T11:15:58;16.13;;;10.30;;
4517;SDS011;2271;49.464;11.070;2022-11-20T11:20:57;11.57;;;7.63;;
4517;SDS011;2271;49.464;11.070;2022-11-20T11:25:57;19.30;;;11.77;;
4517;SDS011;2271;49.464;11.070;2022-11-20T11:28:24;14.57;;;10.17;;
4517;SDS011;2271;49.464;11.070;2022-11-20T11:30:52;14.97;;;9.27;;
4517;SDS011;2271;49.464;11.070;2022-11-20T11:33:20;15.27;;;10.43;;
4517;SDS011;2271;49.464;11.070;2022-11-20T11:36:01;11.70;;;7.90;;
4517;SDS011;2271;49.464;11.070;2022-11-20T11:38:41;14.60;;;8.97;;
4517;SDS011;2271;49.464;11.070;2022-11-20T11:41:09;16.43;;;8.83;;
4517;SDS011;2271;49.464;11.070;2022-11-20T11:43:49;10.60;;;8.17;;
4517;SDS011;2271;49.464;11.070;2022-11-20T11:46:53;14.10;;;7.87;;
4517;SDS011;2271;49.464;11.070;2022-11-20T11:49:21;11.60;;;6.47;;
4517;SDS011;2271;49.464;11.070;2022-11-20T11:56:58;12.37;;;6.20;;
4517;SDS011;2271;49.464;11.070;2022-11-20T12:05:09;9.20;;;6.30;;
4517;SDS011;2271;49.464;11.070;2022-11-20T12:07:41;17.67;;;9.70;;
4517;SDS011;2271;49.464;11.070;2022-11-20T12:10:23;11.60;;;8.00;;
4517;SDS011;2271;49.464;11.070;2022-11-20T12:13:02;12.30;;;7.67;;
4517;SDS011;2271;49.464;11.070;2022-11-20T12:15:38;9.93;;;6.00;;
4517;SDS011;2271;49.464;11.070;2022-11-20T12:18:14;14.13;;;8.07;;
4517;SDS011;2271;49.464;11.070;2022-11-20T12:20:44;9.23;;;6.70;;
4517;SDS011;2271;49.464;11.070;2022-11-20T12:23:22;9.07;;;6.30;;
4517;SDS011;2271;49.464;11.070;2022-11-20T12:25:56;9.40;;;6.03;;
4517;SDS011;2271;49.464;11.070;2022-11-20T12:31:21;23.00;;;10.13;;
4517;SDS011;2271;49.464;11.070;2022-11-20T12:38:59;8.80;;;6.33;;
4517;SDS011;2271;49.464;11.070;2022-11-20T12:55:36;7.67;;;5.27;;
4517;SDS011;2271;49.464;11.070;2022-11-20T13:01:21;6.07;;;4.33;;
4517;SDS011;2271;49.464;11.070;2022-11-20T13:06:59;7.73;;;5.77;;
4517;SDS011;2271;49.464;11.070;2022-11-20T13:09:27;7.60;;;5.40;;
4517;SDS011;2271;49.464;11.070;2022-11-20T13:17:22;6.13;;;4.83;;
4517;SDS011;2271;49.464;11.070;2022-11-20T13:19:53;8.40;;;5.83;;
4517;SDS011;2271;49.464;11.070;2022-11-20T13:22:28;8.63;;;5.70;;
4517;SDS011;2271;49.464;11.070;2022-11-20T13:25:10;8.03;;;5.87;;
4517;SDS011;2271;49.464;11.070;2022-11-20T13:30:51;6.97;;;5.60;;
4517;SDS011;2271;49.464;11.070;2022-11-20T13:35:55;10.20;;;5.73;;
4517;SDS011;2271;49.464;11.070;2022-11-20T13:38:24;7.70;;;5.93;;
4517;SDS011;2271;49.464;11.070;2022-11-20T13:40:51;10.23;;;5.23;;
4517;SDS011;2271;49.464;11.070;2022-11-20T13:43:35;7.00;;;5.17;;
4517;SDS011;2271;49.464;11.070;2022-11-20T13:46:07;7.30;;;5.27;;
4517;SDS011;2271;49.464;11.070;2022-11-20T13:48:41;7.63;;;4.90;;
4517;SDS011;2271;49.464;11.070;2022-11-20T14:02:14;7.37;;;4.97;;
4517;SDS011;2271;49.464;11.070;2022-11-20T14:04:44;7.90;;;5.73;;
4517;SDS011;2271;49.464;11.070;2022-11-20T14:07:15;10.73;;;6.37;;
4517;SDS011;2271;49.464;11.070;2022-11-20T14:09:53;14.03;;;7.73;;
4517;SDS011;2271;49.464;11.070;2022-11-20T14:12:21;8.27;;;5.63;;
4517;SDS011;2271;49.464;11.070;2022-11-20T14:14:53;8.60;;;5.33;;
4517;SDS011;2271;49.464;11.070;2022-11-20T14:19:50;10.43;;;5.73;;
4517;SDS011;2271;49.464;11.070;2022-11-20T14:24:47;8.93;;;5.77;;
4517;SDS011;2271;49.464;11.070;2022-11-20T14:27:15;7.67;;;5.37;;
4517;SDS011;2271;49.464;11.070;2022-11-20T14:29:44;7.33;;;5.47;;
4517;SDS011;2271;49.464;11.070;2022-11-20T14:32:11;10.93;;;6.50;;
4517;SDS011;2271;49.464;11.070;2022-11-20T14:34:41;7.47;;;5.57;;
4517;SDS011;2271;49.464;11.070;2022-11-20T14:37:16;7.37;;;5.33;;
4517;SDS011;2271;49.464;11.070;2022-11-20T14:39:48;6.77;;;5.60;;
4517;SDS011;2271;49.464;11.070;2022-11-20T14:42:20;9.80;;;6.70;;
4517;SDS011;2271;49.464;11.070;2022-11-20T14:44:47;9.70;;;6.23;;
4517;SDS011;2271;49.464;11.070;2022-11-20T14:47:15;8.60;;;6.57;;
4517;SDS011;2271;49.464;11.070;2022-11-20T14:50:01;7.53;;;5.53;;
4517;SDS011;2271;49.464;11.070;2022-11-20T14:52:27;9.77;;;5.60;;
4517;SDS011;2271;49.464;11.070;2022-11-20T14:54:56;10.53;;;6.17;;
4517;SDS011;2271;49.464;11.070;2022-11-20T15:02:44;10.73;;;7.43;;
4517;SDS011;2271;49.464;11.070;2022-11-20T15:05:11;12.10;;;7.40;;
4517;SDS011;2271;49.464;11.070;2022-11-20T15:07:38;11.73;;;7.20;;
4517;SDS011;2271;49.464;11.070;2022-11-20T15:15:17;12.37;;;6.50;;
4517;SDS011;2271;49.464;11.070;2022-11-20T15:18:04;10.67;;;6.53;;
4517;SDS011;2271;49.464;11.070;2022-11-20T15:20:35;7.73;;;6.10;;
4517;SDS011;2271;49.464;11.070;2022-11-20T15:23:01;8.77;;;5.47;;
4517;SDS011;2271;49.464;11.070;2022-11-20T15:25:26;7.97;;;6.37;;
4517;SDS011;2271;49.464;11.070;2022-11-20T15:27:54;9.80;;;7.33;;
4517;SDS011;2271;49.464;11.070;2022-11-20T15:30:22;11.23;;;6.73;;
4517;SDS011;2271;49.464;11.070;2022-11-20T15:32:48;8.23;;;5.73;;
4517;SDS011;2271;49.464;11.070;2022-11-20T15:35:14;9.97;;;6.67;;
4517;SDS011;2271;49.464;11.070;2022-11-20T15:37:40;11.83;;;8.03;;
4517;SDS011;2271;49.464;11.070;2022-11-20T15:40:07;9.23;;;6.10;;
4517;SDS011;2271;49.464;11.070;2022-11-20T15:42:33;7.60;;;6.30;;
4517;SDS011;2271;49.464;11.070;2022-11-20T15:45:00;9.43;;;6.30;;
4517;SDS011;2271;49.464;11.070;2022-11-20T15:47:32;9.87;;;6.37;;
4517;SDS011;2271;49.464;11.070;2022-11-20T15:49:59;12.07;;;6.40;;
4517;SDS011;2271;49.464;11.070;2022-11-20T15:52:25;8.80;;;5.93;;
4517;SDS011;2271;49.464;11.070;2022-11-20T15:54:51;9.80;;;6.40;;
4517;SDS011;2271;49.464;11.070;2022-11-20T15:57:16;8.70;;;6.60;;
4517;SDS011;2271;49.464;11.070;2022-11-20T15:59:42;8.20;;;6.33;;
4517;SDS011;2271;49.464;11.070;2022-11-20T16:02:11;11.77;;;7.57;;
4517;SDS011;2271;49.464;11.070;2022-11-20T16:04:37;12.33;;;8.03;;
4517;SDS011;2271;49.464;11.070;2022-11-20T16:07:03;9.13;;;7.13;;
4517;SDS011;2271;49.464;11.070;2022-11-20T16:09:29;12.47;;;8.90;;
4517;SDS011;2271;49.464;11.070;2022-11-20T16:11:55;8.90;;;5.80;;
4517;SDS011;2271;49.464;11.070;2022-11-20T16:14:20;12.67;;;7.37;;
4517;SDS011;2271;49.464;11.070;2022-11-20T16:17:05;12.27;;;7.20;;
4517;SDS011;2271;49.464;11.070;2022-11-20T16:19:31;18.90;;;8.27;;
4517;SDS011;2271;49.464;11.070;2022-11-20T16:21:59;13.17;;;8.63;;
4517;SDS011;2271;49.464;11.070;2022-11-20T16:24:26;12.77;;;8.13;;
4517;SDS011;2271;49.464;11.070;2022-11-20T16:26:52;10.93;;;7.37;;
4517;SDS011;2271;49.464;11.070;2022-11-20T16:29:19;10.47;;;7.43;;
4517;SDS011;2271;49.464;11.070;2022-11-20T16:31:44;11.70;;;6.80;;
4517;SDS011;2271;49.464;11.070;2022-11-20T16:34:10;9.17;;;6.40;;
4517;SDS011;2271;49.464;11.070;2022-11-20T16:36:36;9.50;;;6.23;;
4517;SDS011;2271;49.464;11.070;2022-11-20T16:39:04;10.67;;;7.47;;
4517;SDS011;2271;49.464;11.070;2022-11-20T16:41:31;11.10;;;6.77;;
4517;SDS011;2271;49.464;11.070;2022-11-20T16:43:59;10.57;;;6.73;;
4517;SDS011;2271;49.464;11.070;2022-11-20T16:46:26;8.57;;;5.97;;
4517;SDS011;2271;49.464;11.070;2022-11-20T16:51:23;18.00;;;8.70;;
4517;SDS011;2271;49.464;11.070;2022-11-20T16:53:49;11.93;;;6.67;;
4517;SDS011;2271;49.464;11.070;2022-11-20T16:56:16;11.83;;;8.03;;
4517;SDS011;2271;49.464;11.070;2022-11-20T16:58:44;10.03;;;6.60;;
4517;SDS011;2271;49.464;11.070;2022-11-20T17:01:12;11.47;;;6.80;;
4517;SDS011;2271;49.464;11.070;2022-11-20T17:03:42;11.67;;;7.17;;
4517;SDS011;2271;49.464;11.070;2022-11-20T17:06:14;12.17;;;7.77;;